Time;durP1;ratioP1;P1;durP2;ratioP2;P2;SDS_P1;SDS_P2;PMS_P1;PMS_P2;Temp;Humidity;BMP_temperature;BMP_pressure;BME280_temperature;BME280_humidity;BME280_pressure;Samples;Min_cycle;Max_cycle;Signal;HPM_P1;HPM_P2
2022/07/02 00:01:54;;;;;;;7.38;3.90;;;16.50;99.90;;;;;;5048211;28;20468;-77
2022/07/02 00:04:31;;;;;;;7.43;3.87;;;16.50;99.90;;;;;;5045288;28;20641;-77
2022/07/02 00:06:58;;;;;;;5.32;3.78;;;16.50;99.90;;;;;;5047000;28;20471;-76
2022/07/02 00:09:27;;;;;;;3.38;3.08;;;16.40;99.90;;;;;;5043511;28;20220;-77
2022/07/02 00:11:58;;;;;;;4.65;3.40;;;16.40;99.90;;;;;;5041989;28;20220;-76
2022/07/02 00:14:25;;;;;;;4.25;3.85;;;16.40;99.90;;;;;;5044142;28;20570;-75
2022/07/02 00:16:54;;;;;;;4.15;3.70;;;16.40;99.90;;;;;;5035674;28;20220;-76
2022/07/02 00:19:23;;;;;;;7.38;3.72;;;16.30;99.90;;;;;;5039088;28;20571;-76
2022/07/02 00:21:50;;;;;;;4.55;3.90;;;16.40;99.90;;;;;;5047906;28;20244;-77
2022/07/02 00:24:17;;;;;;;5.95;4.13;;;16.30;99.90;;;;;;5038096;28;20229;-76
2022/07/02 00:26:54;;;;;;;6.05;3.60;;;16.20;99.90;;;;;;5037023;28;20267;-76
2022/07/02 00:29:27;;;;;;;9.80;5.30;;;16.20;99.90;;;;;;5044409;28;20207;-77
2022/07/02 00:31:55;;;;;;;6.60;4.10;;;16.10;99.90;;;;;;5019969;28;20225;-76
2022/07/02 00:34:25;;;;;;;7.28;4.78;;;16.10;99.90;;;;;;5040031;28;20205;-75
2022/07/02 00:36:53;;;;;;;6.72;4.10;;;16.00;99.90;;;;;;5048899;28;20208;-75
2022/07/02 00:39:20;;;;;;;6.50;4.35;;;16.00;99.90;;;;;;5050488;28;20231;-75
2022/07/02 00:41:49;;;;;;;5.50;4.75;;;16.00;99.90;;;;;;5060086;28;20284;-76
2022/07/02 00:44:19;;;;;;;5.35;3.65;;;15.90;99.90;;;;;;5047519;28;20219;-73
2022/07/02 00:46:47;;;;;;;5.57;5.07;;;15.90;99.90;;;;;;5052467;28;20244;-78
2022/07/02 00:49:14;;;;;;;6.07;4.50;;;15.80;99.90;;;;;;5050602;28;20235;-74
2022/07/02 00:51:42;;;;;;;4.65;4.03;;;15.80;99.90;;;;;;5046904;28;20373;-75
2022/07/02 00:54:09;;;;;;;5.75;4.32;;;15.70;99.90;;;;;;5037238;28;20200;-75
2022/07/02 00:56:36;;;;;;;19.15;4.97;;;15.70;99.90;;;;;;5045672;28;20250;-75
2022/07/02 00:59:04;;;;;;;6.47;4.53;;;15.70;99.90;;;;;;5046584;28;20206;-73
2022/07/02 01:01:31;;;;;;;4.85;4.45;;;15.70;99.90;;;;;;5047412;28;20663;-75
2022/07/02 01:04:02;;;;;;;5.22;4.38;;;15.70;99.90;;;;;;5044222;28;20202;-76
2022/07/02 01:06:32;;;;;;;4.30;3.90;;;15.60;99.90;;;;;;5044229;28;20203;-76
2022/07/02 01:11:53;;;;;;;5.35;4.85;;;15.50;99.90;;;;;;4998497;28;20230;-77
2022/07/02 01:14:23;;;;;;;5.60;5.20;;;15.50;99.90;;;;;;5045828;28;20224;-75
2022/07/02 01:16:50;;;;;;;5.90;5.30;;;15.50;99.90;;;;;;5064450;28;20223;-75
2022/07/02 01:19:19;;;;;;;5.07;4.68;;;15.50;99.90;;;;;;5047446;28;20223;-74
2022/07/02 01:22:13;;;;;;;5.57;5.18;;;15.50;99.90;;;;;;5048421;28;20318;-76
2022/07/02 01:24:40;;;;;;;5.20;4.78;;;15.50;99.90;;;;;;5043089;28;20405;-76
2022/07/02 01:27:09;;;;;;;7.65;5.43;;;15.70;99.90;;;;;;5049293;28;20290;-76
2022/07/02 01:29:36;;;;;;;4.35;3.95;;;15.70;99.90;;;;;;5044508;28;20705;-74
2022/07/02 01:32:04;;;;;;;7.07;4.00;;;15.90;99.90;;;;;;5047116;28;20224;-77
2022/07/02 01:34:35;;;;;;;4.85;4.20;;;15.90;99.90;;;;;;5046331;28;20258;-77
2022/07/02 01:37:02;;;;;;;7.45;4.18;;;15.90;99.90;;;;;;5041833;28;20709;-76
2022/07/02 01:39:31;;;;;;;8.65;5.10;;;15.90;99.90;;;;;;5043156;28;20210;-74
2022/07/02 01:41:58;;;;;;;6.70;6.03;;;15.90;99.90;;;;;;5053824;28;20310;-76
2022/07/02 01:44:25;;;;;;;4.63;4.22;;;15.80;99.90;;;;;;5047223;28;20647;-77
2022/07/02 01:46:52;;;;;;;7.85;4.70;;;15.60;99.90;;;;;;5051129;28;20232;-74
2022/07/02 01:49:19;;;;;;;6.10;5.60;;;15.50;99.90;;;;;;5049742;28;20242;-75
2022/07/02 01:51:46;;;;;;;7.85;5.55;;;15.40;99.90;;;;;;5046365;28;20231;-74
2022/07/02 01:54:14;;;;;;;6.03;5.53;;;15.50;99.90;;;;;;5048019;28;20287;-74
2022/07/02 01:56:43;;;;;;;8.48;5.90;;;15.30;99.90;;;;;;5052348;28;20240;-75
2022/07/02 01:59:13;;;;;;;10.38;5.10;;;15.20;99.90;;;;;;5054811;28;20223;-75
2022/07/02 02:01:40;;;;;;;5.80;5.30;;;15.10;99.90;;;;;;5052628;28;20231;-75
2022/07/02 02:04:07;;;;;;;6.10;5.53;;;15.10;99.90;;;;;;5049145;28;20681;-77
2022/07/02 02:06:34;;;;;;;10.48;5.82;;;15.00;99.90;;;;;;5048513;28;20228;-77
2022/07/02 02:09:01;;;;;;;9.00;5.90;;;15.00;99.90;;;;;;5044989;28;20242;-77
2022/07/02 02:11:29;;;;;;;6.28;5.40;;;14.90;99.90;;;;;;5049634;28;20303;-77
2022/07/02 02:13:58;;;;;;;6.65;6.03;;;14.80;99.90;;;;;;5050973;28;20646;-76
2022/07/02 02:16:26;;;;;;;6.45;5.80;;;14.80;99.90;;;;;;5042513;28;20588;-76
2022/07/02 02:18:53;;;;;;;7.30;6.10;;;14.70;99.90;;;;;;5045005;28;20634;-77
2022/07/02 02:21:20;;;;;;;8.27;6.53;;;14.60;99.90;;;;;;5043820;28;20215;-75
2022/07/02 02:23:47;;;;;;;6.78;5.43;;;14.60;99.90;;;;;;5048226;28;20210;-77
2022/07/02 02:26:14;;;;;;;6.78;6.05;;;14.60;99.90;;;;;;5042486;28;20278;-75
2022/07/02 02:28:41;;;;;;;7.20;6.60;;;14.50;99.90;;;;;;5053930;28;20211;-76
2022/07/02 02:31:09;;;;;;;8.05;5.50;;;14.60;99.90;;;;;;5048421;28;20230;-76
2022/07/02 02:33:36;;;;;;;7.00;5.90;;;14.50;99.90;;;;;;5045124;28;20195;-76
2022/07/02 02:36:04;;;;;;;7.97;5.72;;;14.40;99.90;;;;;;5053945;28;20218;-74
2022/07/02 02:38:31;;;;;;;5.63;5.13;;;14.40;99.90;;;;;;5049031;28;20283;-77
2022/07/02 02:40:58;;;;;;;9.80;8.82;;;14.40;99.90;;;;;;5048508;28;20677;-75
2022/07/02 02:43:25;;;;;;;6.00;5.50;;;14.40;99.90;;;;;;5049459;28;20210;-76
2022/07/02 02:45:52;;;;;;;6.10;5.50;;;14.40;99.90;;;;;;5052685;28;20276;-76
2022/07/02 02:48:20;;;;;;;6.60;6.00;;;14.50;99.90;;;;;;5038093;28;20210;-75
2022/07/02 02:50:47;;;;;;;5.85;4.68;;;14.40;99.90;;;;;;5042415;28;20291;-76
2022/07/02 02:53:14;;;;;;;8.70;5.50;;;14.40;99.90;;;;;;5047517;28;20298;-75
2022/07/02 02:55:41;;;;;;;5.60;5.10;;;14.40;99.90;;;;;;5040725;28;20262;-76
2022/07/02 02:58:08;;;;;;;8.32;5.85;;;14.40;99.90;;;;;;5042698;28;20326;-76
2022/07/02 03:00:35;;;;;;;7.90;6.63;;;14.40;99.90;;;;;;5041345;28;20206;-76
2022/07/02 03:03:02;;;;;;;5.20;4.80;;;14.40;99.90;;;;;;5040577;28;20223;-77
2022/07/02 03:05:30;;;;;;;6.25;5.75;;;14.30;99.90;;;;;;5037165;28;20670;-74
2022/07/02 03:07:57;;;;;;;8.13;5.70;;;14.40;99.90;;;;;;5049843;28;20206;-76
2022/07/02 03:10:24;;;;;;;8.68;6.05;;;14.40;99.90;;;;;;5046078;28;20208;-75
2022/07/02 03:12:52;;;;;;;6.70;6.00;;;14.30;99.90;;;;;;5058862;28;20238;-74
2022/07/02 03:15:19;;;;;;;12.35;5.45;;;14.30;99.90;;;;;;5063017;28;20268;-73
2022/07/02 03:17:49;;;;;;;9.38;5.72;;;14.30;99.90;;;;;;5051010;28;20613;-77
2022/07/02 03:20:16;;;;;;;6.28;5.22;;;14.40;99.90;;;;;;5042141;28;20286;-74
2022/07/02 03:22:45;;;;;;;10.35;5.97;;;14.40;99.90;;;;;;5039234;28;20227;-75
2022/07/02 03:25:12;;;;;;;8.63;6.40;;;14.30;99.90;;;;;;5044128;28;20286;-74
2022/07/02 03:27:39;;;;;;;5.88;4.90;;;14.40;99.90;;;;;;5052627;28;20196;-76
2022/07/02 03:30:07;;;;;;;7.38;5.18;;;14.40;99.90;;;;;;5047949;28;20197;-75
2022/07/02 03:32:34;;;;;;;7.53;5.65;;;14.40;99.90;;;;;;5046942;28;20250;-75
2022/07/02 03:35:01;;;;;;;6.63;6.10;;;14.40;99.90;;;;;;5048342;28;20286;-75
2022/07/02 03:37:28;;;;;;;5.20;4.70;;;14.40;99.90;;;;;;5053487;28;20262;-76
2022/07/02 03:39:57;;;;;;;6.68;6.07;;;14.40;99.90;;;;;;5041793;28;20287;-76
2022/07/02 03:42:24;;;;;;;7.35;4.90;;;14.50;99.90;;;;;;5053691;28;20227;-77
2022/07/02 03:44:51;;;;;;;5.40;4.65;;;14.50;99.90;;;;;;5058716;28;20267;-77
2022/07/02 03:47:18;;;;;;;9.98;5.60;;;14.50;99.90;;;;;;5053252;28;20204;-75
2022/07/02 03:49:45;;;;;;;6.43;5.88;;;14.50;99.90;;;;;;5061190;28;20756;-77
2022/07/02 03:52:14;;;;;;;10.38;6.13;;;14.60;99.90;;;;;;5049750;28;20732;-74
2022/07/02 03:54:41;;;;;;;9.05;5.70;;;14.60;99.90;;;;;;5062254;28;20282;-73
2022/07/02 03:57:12;;;;;;;9.05;6.53;;;14.70;99.90;;;;;;5051272;28;20271;-76
2022/07/02 03:59:39;;;;;;;6.53;5.50;;;14.80;99.90;;;;;;5047160;28;20729;-74
2022/07/02 04:02:06;;;;;;;9.10;5.47;;;14.70;99.90;;;;;;5044968;28;20265;-78
2022/07/02 04:04:33;;;;;;;6.03;4.50;;;14.70;99.90;;;;;;5047008;28;20235;-74
2022/07/02 04:07:00;;;;;;;7.25;5.85;;;14.80;99.90;;;;;;5055860;28;20202;-75
2022/07/02 04:09:27;;;;;;;5.35;4.88;;;15.00;99.90;;;;;;5050731;28;20298;-74
2022/07/02 04:11:54;;;;;;;8.40;5.70;;;15.50;99.90;;;;;;5050343;28;20227;-76
2022/07/02 04:14:22;;;;;;;5.57;4.72;;;16.20;99.90;;;;;;5054396;28;20596;-76
2022/07/02 04:16:49;;;;;;;8.27;4.25;;;16.90;99.90;;;;;;5056066;28;20227;-75
2022/07/02 04:19:16;;;;;;;8.83;5.27;;;17.70;99.90;;;;;;5044385;28;20202;-76
2022/07/02 04:21:43;;;;;;;5.40;4.40;;;18.50;99.90;;;;;;5045725;28;20557;-73
2022/07/02 04:24:10;;;;;;;5.03;4.63;;;19.10;99.90;;;;;;5042238;28;20528;-76
2022/07/02 04:26:36;;;;;;;11.20;4.13;;;19.60;99.90;;;;;;5040516;28;20439;-75
2022/07/02 04:29:03;;;;;;;8.80;4.50;;;20.00;99.90;;;;;;5050941;28;20529;-74
2022/07/02 04:31:32;;;;;;;5.60;4.33;;;20.30;99.90;;;;;;5042779;28;20462;-74
2022/07/02 04:33:59;;;;;;;5.43;4.07;;;20.30;99.90;;;;;;5054483;28;20466;-73
2022/07/02 04:36:25;;;;;;;5.93;4.23;;;20.70;99.90;;;;;;5053642;28;20505;-73
2022/07/02 04:38:52;;;;;;;4.30;3.90;;;20.90;99.50;;;;;;5050613;28;20535;-74
2022/07/02 04:41:19;;;;;;;6.60;4.30;;;21.00;99.30;;;;;;5043139;28;20509;-76
2022/07/02 04:43:46;;;;;;;5.30;3.63;;;21.40;97.80;;;;;;5049157;28;20533;-76
2022/07/02 04:46:13;;;;;;;4.60;3.43;;;21.60;97.50;;;;;;5046641;28;20524;-76
2022/07/02 04:48:41;;;;;;;9.70;3.87;;;22.20;96.10;;;;;;5048814;28;20449;-77
2022/07/02 04:51:08;;;;;;;6.47;3.63;;;22.20;95.50;;;;;;5045124;28;20549;-77
2022/07/02 04:53:36;;;;;;;5.73;3.17;;;22.50;95.00;;;;;;5048829;28;20536;-75
2022/07/02 04:56:03;;;;;;;4.97;3.10;;;22.90;94.30;;;;;;5043647;28;20481;-73
2022/07/02 04:58:30;;;;;;;5.90;3.20;;;23.20;93.50;;;;;;5048402;28;20927;-75
2022/07/02 05:00:57;;;;;;;7.83;3.77;;;23.50;92.40;;;;;;5042692;28;20546;-77
2022/07/02 05:03:24;;;;;;;6.43;3.37;;;24.00;92.10;;;;;;5037513;28;20478;-74
2022/07/02 05:05:53;;;;;;;5.37;3.20;;;24.30;90.90;;;;;;5050596;28;20529;-74
2022/07/02 05:08:24;;;;;;;5.60;3.70;;;24.70;90.30;;;;;;5075675;28;20466;-76
2022/07/02 05:10:51;;;;;;;8.43;4.03;;;24.40;90.10;;;;;;5059123;28;20446;-74
2022/07/02 05:13:19;;;;;;;6.77;3.33;;;24.60;90.00;;;;;;5055681;28;20486;-73
2022/07/02 05:15:46;;;;;;;5.43;2.97;;;25.00;89.80;;;;;;5060623;28;20442;-76
2022/07/02 05:18:13;;;;;;;4.20;3.10;;;25.20;88.20;;;;;;5054731;28;20482;-76
2022/07/02 05:20:40;;;;;;;6.43;2.90;;;25.80;86.90;;;;;;5046212;28;20507;-77
2022/07/02 05:23:08;;;;;;;7.10;3.40;;;25.50;86.00;;;;;;5036133;28;20497;-77
2022/07/02 05:25:35;;;;;;;4.87;2.40;;;25.50;86.10;;;;;;5047557;28;20543;-75
2022/07/02 05:28:02;;;;;;;5.30;3.30;;;25.20;86.60;;;;;;5036467;28;20849;-76
2022/07/02 05:30:29;;;;;;;5.30;2.90;;;25.40;87.30;;;;;;5049694;28;20518;-76
2022/07/02 05:32:56;;;;;;;5.83;2.97;;;25.90;85.90;;;;;;5038700;28;20457;-75
2022/07/02 05:35:23;;;;;;;3.83;2.50;;;26.00;84.60;;;;;;5039590;28;20451;-77
2022/07/02 05:37:50;;;;;;;3.73;2.83;;;26.80;84.10;;;;;;5043122;28;20588;-74
2022/07/02 05:40:18;;;;;;;4.97;3.30;;;26.70;82.60;;;;;;5040788;28;20530;-75
2022/07/02 05:42:45;;;;;;;7.73;3.63;;;26.60;82.70;;;;;;5044735;28;20966;-75
2022/07/02 05:45:12;;;;;;;3.90;3.27;;;26.80;81.60;;;;;;5049418;28;20439;-75
2022/07/02 05:47:39;;;;;;;4.50;2.83;;;27.30;81.60;;;;;;5037913;28;20451;-76
2022/07/02 05:50:07;;;;;;;8.43;3.17;;;27.60;81.40;;;;;;5037397;28;20441;-74
2022/07/02 05:52:34;;;;;;;7.60;3.13;;;27.60;79.40;;;;;;5046494;28;20645;-74
2022/07/02 05:55:01;;;;;;;4.40;3.27;;;27.70;79.50;;;;;;5045583;28;20482;-77
2022/07/02 05:57:30;;;;;;;5.83;3.10;;;28.00;78.90;;;;;;5054075;28;20474;-75
2022/07/02 06:00:00;;;;;;;5.90;2.60;;;28.20;77.90;;;;;;5042417;28;20984;-76
2022/07/02 06:02:28;;;;;;;7.13;2.90;;;28.30;77.80;;;;;;5051070;28;20466;-76
2022/07/02 06:04:55;;;;;;;5.60;2.43;;;28.80;76.30;;;;;;5036833;28;20950;-76
2022/07/02 06:07:40;;;;;;;12.23;3.10;;;28.60;75.50;;;;;;5050482;28;20467;-76
2022/07/02 06:10:08;;;;;;;6.30;2.80;;;29.30;75.10;;;;;;5050183;28;20996;-74
2022/07/02 06:12:36;;;;;;;5.63;2.27;;;29.00;74.00;;;;;;5042823;28;20890;-74
2022/07/02 06:15:04;;;;;;;3.63;2.20;;;29.00;75.10;;;;;;5051023;28;20452;-78
2022/07/02 06:17:31;;;;;;;6.70;2.60;;;29.30;74.10;;;;;;5047919;28;20492;-76
2022/07/02 06:19:59;;;;;;;7.47;2.83;;;29.70;74.10;;;;;;5047787;28;20446;-75
2022/07/02 06:22:26;;;;;;;4.00;2.17;;;30.30;72.90;;;;;;5047552;28;20465;-75
2022/07/02 06:24:55;;;;;;;2.70;1.50;;;29.90;72.30;;;;;;5047961;28;20525;-75
2022/07/02 06:27:22;;;;;;;3.97;1.67;;;30.00;71.50;;;;;;5048690;28;20446;-75
2022/07/02 06:29:51;;;;;;;6.27;2.10;;;29.80;71.00;;;;;;5052336;28;20450;-75
2022/07/02 06:32:18;;;;;;;4.80;2.10;;;29.30;72.00;;;;;;5042891;28;20566;-76
2022/07/02 06:34:45;;;;;;;4.90;2.27;;;29.40;71.60;;;;;;5055156;28;20509;-74
2022/07/02 06:37:13;;;;;;;3.93;2.03;;;29.90;71.80;;;;;;5045084;28;20561;-74
2022/07/02 06:39:40;;;;;;;3.00;1.80;;;30.10;70.80;;;;;;5049165;28;20549;-75
2022/07/02 06:42:23;;;;;;;4.70;2.03;;;30.50;70.40;;;;;;5044213;28;20461;-76
2022/07/02 06:44:53;;;;;;;4.53;1.67;;;30.60;69.90;;;;;;5040573;28;20522;-75
2022/07/02 06:47:21;;;;;;;3.53;1.60;;;30.90;69.30;;;;;;5045737;28;20529;-74
2022/07/02 06:49:49;;;;;;;4.07;2.10;;;30.60;68.00;;;;;;5052940;28;20442;-74
2022/07/02 06:52:18;;;;;;;4.33;1.67;;;30.70;68.10;;;;;;5047409;28;20466;-73
2022/07/02 06:54:45;;;;;;;4.03;2.00;;;30.90;68.10;;;;;;5047556;28;20510;-74
2022/07/02 06:57:18;;;;;;;3.77;1.87;;;31.30;67.60;;;;;;5055719;28;20481;-74
2022/07/02 06:59:45;;;;;;;4.80;1.80;;;31.00;67.50;;;;;;5058970;28;20450;-74
2022/07/02 07:02:13;;;;;;;5.67;2.33;;;30.90;66.40;;;;;;5060837;28;20531;-73
2022/07/02 07:04:41;;;;;;;3.03;1.20;;;31.10;67.20;;;;;;5054462;28;20476;-74
2022/07/02 07:07:10;;;;;;;2.70;1.23;;;30.50;66.90;;;;;;5070311;28;20462;-74
2022/07/02 07:09:43;;;;;;;2.93;1.50;;;31.20;65.90;;;;;;5049256;28;20501;-74
2022/07/02 07:12:11;;;;;;;5.00;1.47;;;31.20;65.70;;;;;;5047388;28;20458;-75
2022/07/02 07:14:38;;;;;;;4.53;1.43;;;31.10;65.60;;;;;;5051121;28;20921;-73
2022/07/02 07:17:05;;;;;;;3.90;2.10;;;30.90;66.00;;;;;;5051349;28;20572;-73
2022/07/02 07:19:33;;;;;;;8.67;1.87;;;30.70;65.80;;;;;;5039903;28;21014;-74
2022/07/02 07:22:01;;;;;;;7.13;2.77;;;31.20;65.00;;;;;;5040581;28;20473;-74
2022/07/02 07:24:28;;;;;;;3.30;1.40;;;31.70;64.40;;;;;;5044854;28;20525;-74
2022/07/02 07:26:57;;;;;;;3.90;1.60;;;31.70;64.10;;;;;;5046646;28;20530;-74
2022/07/02 07:29:24;;;;;;;5.50;2.30;;;31.30;63.50;;;;;;5037641;28;20541;-74
2022/07/02 07:31:51;;;;;;;7.40;2.30;;;31.10;63.80;;;;;;5034338;28;20477;-72
2022/07/02 07:34:18;;;;;;;5.33;2.20;;;31.00;64.10;;;;;;5038607;28;20542;-74
2022/07/02 07:36:46;;;;;;;3.13;1.67;;;30.50;64.50;;;;;;5038598;28;20455;-73
2022/07/02 07:39:13;;;;;;;6.67;2.57;;;31.10;64.50;;;;;;5040154;28;20959;-74
2022/07/02 07:41:40;;;;;;;5.00;2.20;;;31.30;64.40;;;;;;5044567;28;20494;-74
2022/07/02 07:44:07;;;;;;;5.37;1.90;;;31.00;63.40;;;;;;5045369;28;20851;-73
2022/07/02 07:46:35;;;;;;;3.70;1.93;;;31.40;63.70;;;;;;5056086;28;20477;-75
2022/07/02 07:49:02;;;;;;;3.77;1.83;;;31.70;63.60;;;;;;5048727;28;20443;-73
2022/07/02 07:51:29;;;;;;;7.07;2.53;;;31.80;62.90;;;;;;5049398;28;20462;-73
2022/07/02 07:53:59;;;;;;;14.80;3.47;;;31.90;61.40;;;;;;5049962;28;20473;-73
2022/07/02 07:56:25;;;;;;;7.63;2.60;;;30.40;61.30;;;;;;5048635;28;20530;-73
2022/07/02 07:59:16;;;;;;;5.93;2.80;;;30.30;64.20;;;;;;5047533;28;20569;-75
2022/07/02 08:01:43;;;;;;;5.67;2.70;;;30.60;65.20;;;;;;5057669;28;20511;-76
2022/07/02 08:04:10;;;;;;;6.33;2.53;;;31.30;62.90;;;;;;5047850;28;20448;-73
2022/07/02 08:06:43;;;;;;;4.20;2.20;;;31.40;60.80;;;;;;5053235;28;20551;-77
2022/07/02 08:09:11;;;;;;;4.63;2.33;;;31.10;61.40;;;;;;5040180;28;20493;-72
2022/07/02 08:11:38;;;;;;;6.20;2.43;;;31.20;62.00;;;;;;5053659;28;20494;-73
2022/07/02 08:14:05;;;;;;;4.00;2.07;;;30.90;62.80;;;;;;5048172;28;20526;-73
2022/07/02 08:16:33;;;;;;;4.70;2.17;;;31.30;62.90;;;;;;5054804;28;20469;-72
2022/07/02 08:19:00;;;;;;;4.57;2.00;;;31.60;62.40;;;;;;5042494;28;20470;-73
2022/07/02 08:21:27;;;;;;;4.63;2.03;;;32.10;61.60;;;;;;5042666;28;20875;-73
2022/07/02 08:23:54;;;;;;;5.53;2.23;;;32.90;60.00;;;;;;5044172;28;20859;-74
2022/07/02 08:26:22;;;;;;;5.23;2.50;;;33.30;59.00;;;;;;5044338;28;20442;-74
2022/07/02 08:28:49;;;;;;;6.77;1.40;;;33.20;58.00;;;;;;5053085;28;20469;-73
2022/07/02 08:31:16;;;;;;;6.63;2.33;;;32.80;58.00;;;;;;5041121;28;20889;-74
2022/07/02 08:33:43;;;;;;;4.40;2.30;;;32.50;58.40;;;;;;5056019;28;20447;-73
2022/07/02 08:36:11;;;;;;;3.20;1.67;;;32.20;57.40;;;;;;5054451;28;20473;-73
2022/07/02 08:38:38;;;;;;;3.70;1.50;;;32.40;58.00;;;;;;5043035;28;20488;-72
2022/07/02 08:41:07;;;;;;;2.77;1.60;;;32.40;57.10;;;;;;5050767;28;20466;-73
2022/07/02 08:43:37;;;;;;;5.73;2.20;;;32.00;57.00;;;;;;5055105;28;20473;-74
2022/07/02 08:46:06;;;;;;;6.80;1.43;;;31.60;57.30;;;;;;5044557;28;20537;-73
2022/07/02 08:48:34;;;;;;;5.80;1.73;;;30.80;57.10;;;;;;5051020;28;20490;-73
2022/07/02 08:51:01;;;;;;;3.87;1.47;;;31.30;56.60;;;;;;5049385;28;20473;-74
2022/07/02 08:53:28;;;;;;;2.27;1.20;;;31.40;57.20;;;;;;5043197;28;20460;-74
2022/07/02 08:55:56;;;;;;;6.23;1.50;;;31.40;56.70;;;;;;5049160;28;20508;-74
2022/07/02 08:58:24;;;;;;;3.17;1.63;;;30.60;56.90;;;;;;5043016;28;20471;-72
2022/07/02 09:00:52;;;;;;;4.17;1.50;;;29.20;58.40;;;;;;5058136;28;20457;-75
2022/07/02 09:03:21;;;;;;;7.10;1.77;;;29.90;59.60;;;;;;5057500;28;20474;-76
2022/07/02 09:05:52;;;;;;;2.57;1.90;;;30.20;57.70;;;;;;5054754;28;20449;-74
2022/07/02 09:08:22;;;;;;;4.53;1.30;;;30.20;58.90;;;;;;5057140;28;20825;-75
2022/07/02 09:10:57;;;;;;;2.30;1.20;;;30.40;58.80;;;;;;5051170;28;20531;-75
2022/07/02 09:13:25;;;;;;;4.90;1.50;;;30.80;57.30;;;;;;5044657;28;20446;-76
2022/07/02 09:15:58;;;;;;;2.60;1.47;;;31.10;57.40;;;;;;5046848;28;20458;-74
2022/07/02 09:18:25;;;;;;;4.13;1.77;;;31.40;56.90;;;;;;5043250;28;20479;-74
2022/07/02 09:20:52;;;;;;;1.90;1.10;;;31.60;55.90;;;;;;5044000;28;20439;-75
2022/07/02 09:23:23;;;;;;;3.60;1.77;;;32.00;55.80;;;;;;5045596;28;20439;-76
2022/07/02 09:25:52;;;;;;;3.93;1.40;;;31.80;55.30;;;;;;5041816;28;20788;-74
2022/07/02 09:28:19;;;;;;;7.70;1.73;;;31.30;55.50;;;;;;5043706;28;20481;-76
2022/07/02 09:30:47;;;;;;;2.43;1.23;;;30.00;55.60;;;;;;5045221;28;20459;-72
2022/07/02 09:33:31;;;;;;;2.37;1.00;;;29.20;56.90;;;;;;5044322;28;20458;-76
2022/07/02 09:35:58;;;;;;;2.30;1.33;;;29.10;57.50;;;;;;5051051;28;20453;-75
2022/07/02 09:38:26;;;;;;;3.03;1.10;;;29.10;57.50;;;;;;5052094;28;20569;-72
2022/07/02 09:40:53;;;;;;;2.90;1.53;;;29.20;57.50;;;;;;5041888;28;20447;-74
2022/07/02 09:43:28;;;;;;;3.40;1.20;;;29.10;57.10;;;;;;5049136;28;20438;-75
2022/07/02 09:45:55;;;;;;;2.83;1.40;;;29.10;57.70;;;;;;5046249;28;20447;-73
2022/07/02 09:48:23;;;;;;;1.40;0.90;;;30.00;57.70;;;;;;5044812;28;20462;-75
2022/07/02 09:50:52;;;;;;;2.77;1.37;;;30.60;55.80;;;;;;5049479;28;20446;-74
2022/07/02 09:53:26;;;;;;;3.30;1.30;;;30.70;56.50;;;;;;5047486;28;20457;-74
2022/07/02 09:55:53;;;;;;;2.43;1.23;;;30.10;54.70;;;;;;5046352;28;20465;-76
2022/07/02 09:58:28;;;;;;;4.57;1.30;;;28.60;57.00;;;;;;5045819;28;20470;-75
2022/07/02 10:01:00;;;;;;;2.40;1.30;;;29.00;58.40;;;;;;5040605;28;20528;-73
2022/07/02 10:03:29;;;;;;;2.23;1.13;;;29.20;57.00;;;;;;5045902;28;20509;-75
2022/07/02 10:05:56;;;;;;;2.00;0.97;;;28.70;57.60;;;;;;5053391;28;20446;-74
2022/07/02 10:08:24;;;;;;;2.63;1.50;;;28.10;58.70;;;;;;5046308;28;20474;-74
2022/07/02 10:10:57;;;;;;;3.90;1.30;;;27.40;59.50;;;;;;5053056;28;20488;-75
2022/07/02 10:13:24;;;;;;;4.53;1.27;;;27.00;60.90;;;;;;5038248;28;20453;-74
2022/07/02 10:16:01;;;;;;;3.00;1.40;;;27.10;61.50;;;;;;5047285;28;20521;-75
2022/07/02 10:18:30;;;;;;;1.83;0.90;;;28.50;61.20;;;;;;5045467;28;20508;-76
2022/07/02 10:20:59;;;;;;;2.43;1.03;;;29.60;58.30;;;;;;5049407;28;20474;-75
2022/07/02 10:23:27;;;;;;;4.03;1.10;;;30.60;56.40;;;;;;5054265;28;20458;-75
2022/07/02 10:25:55;;;;;;;2.20;1.00;;;31.00;54.80;;;;;;5064603;28;20485;-77
2022/07/02 10:28:25;;;;;;;3.57;1.10;;;30.00;55.50;;;;;;5056976;28;20468;-75
2022/07/02 10:30:54;;;;;;;3.70;1.43;;;29.10;56.50;;;;;;5065170;28;20533;-76
2022/07/02 10:33:29;;;;;;;2.70;1.40;;;28.50;58.00;;;;;;5050768;28;20458;-78
2022/07/02 10:36:00;;;;;;;5.20;1.37;;;28.50;58.60;;;;;;5041883;28;20529;-76
2022/07/02 10:41:49;;;;;;;5.30;1.33;;;28.40;59.00;;;;;;5196621;22;20499;-80
2022/07/02 10:44:16;;;;;;;2.67;1.03;;;28.10;59.50;;;;;;5003445;28;20794;-81
2022/07/02 10:46:49;;;;;;;3.90;1.00;;;28.20;59.70;;;;;;5005515;28;20432;-81
2022/07/02 10:49:25;;;;;;;1.67;1.30;;;27.90;59.80;;;;;;5011980;28;20508;-80
2022/07/02 10:51:57;;;;;;;3.97;1.20;;;27.60;60.70;;;;;;5006881;28;20470;-81
2022/07/02 10:54:31;;;;;;;2.87;1.20;;;27.40;60.50;;;;;;5003462;28;20441;-81
2022/07/02 10:56:58;;;;;;;3.00;1.43;;;27.20;60.10;;;;;;5001396;28;20961;-81
2022/07/02 10:59:27;;;;;;;2.70;1.00;;;27.30;61.40;;;;;;5005187;28;20498;-83
2022/07/02 11:02:05;;;;;;;3.53;1.50;;;27.30;59.90;;;;;;5005615;28;20555;-81
2022/07/02 11:04:32;;;;;;;3.27;1.50;;;27.20;60.60;;;;;;5003009;28;20479;-81
2022/07/02 11:07:08;;;;;;;3.73;1.70;;;27.10;62.60;;;;;;5003704;28;20444;-82
2022/07/02 11:09:46;;;;;;;2.83;1.20;;;27.30;61.00;;;;;;5004507;28;20462;-82
2022/07/02 11:12:17;;;;;;;1.80;1.07;;;27.30;60.10;;;;;;5008703;28;20490;-80
2022/07/02 11:14:54;;;;;;;6.43;1.37;;;27.40;60.80;;;;;;5012170;28;20833;-83
2022/07/02 11:17:22;;;;;;;3.67;1.10;;;27.70;60.40;;;;;;5005877;28;20448;-82
2022/07/02 11:19:54;;;;;;;2.13;1.10;;;27.80;59.20;;;;;;4999827;28;20511;-84
2022/07/02 11:22:22;;;;;;;2.83;1.10;;;27.60;59.70;;;;;;5005236;28;20492;-84
2022/07/02 11:24:54;;;;;;;3.87;1.50;;;27.40;59.80;;;;;;4998554;28;20907;-81
2022/07/02 11:27:21;;;;;;;2.20;1.30;;;27.30;60.10;;;;;;5006412;28;20445;-82
2022/07/02 11:29:54;;;;;;;2.73;1.30;;;27.50;59.10;;;;;;5005287;28;20531;-80
2022/07/02 11:32:22;;;;;;;1.50;0.90;;;27.60;58.90;;;;;;5003944;28;20493;-83
2022/07/02 11:34:58;;;;;;;2.03;1.00;;;27.40;59.10;;;;;;5004431;28;20810;-82
2022/07/02 11:37:27;;;;;;;1.27;1.03;;;27.60;59.30;;;;;;5005470;28;20440;-82
2022/07/02 11:39:53;;;;;;;3.83;1.20;;;27.50;58.10;;;;;;5004769;28;20504;-83
2022/07/02 11:42:35;;;;;;;1.83;1.00;;;27.30;57.70;;;;;;5006875;28;20495;-82
2022/07/02 11:45:03;;;;;;;2.27;1.73;;;26.80;59.40;;;;;;5013499;28;20432;-81
2022/07/02 11:47:29;;;;;;;3.53;1.20;;;27.00;59.80;;;;;;5016977;28;20469;-82
2022/07/02 11:49:56;;;;;;;1.67;0.90;;;26.60;59.70;;;;;;5013580;28;20472;-82
2022/07/02 11:52:23;;;;;;;4.10;1.20;;;26.50;60.10;;;;;;5014756;28;20491;-80
2022/07/02 11:54:51;;;;;;;1.63;1.00;;;26.50;61.60;;;;;;5015377;28;20457;-81
2022/07/02 11:57:18;;;;;;;4.77;0.97;;;26.60;62.10;;;;;;5015546;28;20465;-81
2022/07/02 11:59:51;;;;;;;4.63;2.37;;;26.60;60.70;;;;;;5024472;28;20548;-79
2022/07/02 12:02:18;;;;;;;2.57;0.90;;;26.90;60.40;;;;;;5023197;28;20480;-81
2022/07/02 12:04:46;;;;;;;4.47;1.10;;;26.60;59.00;;;;;;5020196;28;20465;-81
2022/07/02 12:07:13;;;;;;;1.53;0.93;;;26.10;59.80;;;;;;5024856;28;20472;-79
2022/07/02 12:09:40;;;;;;;1.87;1.20;;;26.00;61.00;;;;;;5016745;28;20499;-79
2022/07/02 12:12:10;;;;;;;1.50;1.10;;;25.90;61.60;;;;;;5021673;28;20474;-81
2022/07/02 12:14:37;;;;;;;4.23;1.27;;;25.80;62.20;;;;;;5013114;28;20445;-81
2022/07/02 12:17:08;;;;;;;4.27;1.30;;;26.00;61.70;;;;;;5016010;28;20464;-80
2022/07/02 12:19:35;;;;;;;3.47;1.20;;;26.00;61.10;;;;;;5022490;28;20507;-80
2022/07/02 12:22:03;;;;;;;4.47;1.80;;;26.30;61.60;;;;;;5024948;28;20490;-80
2022/07/02 12:24:31;;;;;;;4.50;1.03;;;26.50;60.70;;;;;;5017533;28;20434;-81
2022/07/02 12:26:59;;;;;;;2.90;1.07;;;26.60;60.80;;;;;;5020946;28;20439;-80
2022/07/02 12:32:16;;;;;;;4.20;1.30;;;26.80;60.00;;;;;;5020884;28;20451;-81
2022/07/02 12:34:44;;;;;;;2.70;1.00;;;26.80;59.70;;;;;;5013973;28;20444;-82
2022/07/02 12:37:22;;;;;;;4.37;1.20;;;26.80;59.80;;;;;;5016184;28;20509;-81
2022/07/02 12:39:49;;;;;;;2.73;1.20;;;26.90;60.40;;;;;;5016812;28;20484;-80
2022/07/02 12:42:18;;;;;;;1.57;0.90;;;26.90;60.10;;;;;;5020892;28;20540;-80
2022/07/02 12:44:55;;;;;;;3.47;1.07;;;27.00;59.80;;;;;;5020261;28;20447;-81
2022/07/02 12:47:33;;;;;;;2.77;1.10;;;26.90;59.40;;;;;;5020773;28;20461;-80
2022/07/02 12:50:02;;;;;;;6.43;1.43;;;26.90;59.60;;;;;;5002813;28;20437;-82
2022/07/02 12:52:43;;;;;;;1.70;1.00;;;26.90;59.80;;;;;;5024586;28;20459;-80
2022/07/02 12:55:46;;;;;;;5.20;1.47;;;27.10;59.60;;;;;;5018589;28;20441;-81
2022/07/02 12:58:15;;;;;;;11.90;1.10;;;27.20;59.30;;;;;;5012761;28;20475;-81
2022/07/02 13:00:45;;;;;;;4.40;1.17;;;27.30;60.00;;;;;;5020227;28;20509;-81
2022/07/02 13:03:13;;;;;;;3.93;1.47;;;27.10;58.80;;;;;;5011129;28;20520;-80